KMWM

Details ICAO KMWM (MWM)
Name WINDOM MUNI
Region United States
Timezone America/Chicago (UTC-6.0)
Plans Departing 0
Arriving 1
Stats Elevation 1,410 ft / 430 m (AMSL)
Location 43.913410° -95.109398°
Runways 1
Magnetic Variation 1.786° E
Sunrise 2017-12-10 13:45:35 UTC / 2017-12-10 07:45:35 Local
Sunset 2017-12-10 22:44:03 UTC / 2017-12-10 16:44:03 Local
Advertisement - Login to hide

Runways

ID Width Length Bearing (true) Bearing (mag) Surface Threshold Offset Overrun Length
17 75 ft / 23 m 3,604 ft / 1,098 m 180.35° 178.56° Asphalt 0 ft / 0 m 0 ft / 0 m
35 75 ft / 23 m 3,604 ft / 1,098 m 0.35° 358.56° Asphalt 0 ft / 0 m 0 ft / 0 m

Map

Weather


0- 5 10 15 20 25 30 35+ Temperature / ° C

Clouds and Precipitation
Forecast for 2017-12-11 06:00 UTC. Updated 2 hours ago

Ground ~20,000 ft ~40,000 ft Winds

METAR

KMWM 110235Z AUTO 15004KT 10SM CLR 00/M07 A3000 RMK AO2 TSNO

TAF

Not found

Frequencies

Recorded 118.52 MHz AWOS 3
Unicom 122.90 MHz CTAF
Warning: Do not use this data for real-world aviation or navigation. No guarantee of current accuracy is given.